sensor_id;sensor_type;location;lat;lon;timestamp;pressure;altitude;pressure_sealevel;temperature;humidity
78210;BME280;67485;48.816;9.930;2023-03-01T00:01:05;97545.03;;;-3.07;79.69
78210;BME280;67485;48.816;9.930;2023-03-01T00:03:32;97542.31;;;-3.12;80.23
78210;BME280;67485;48.816;9.930;2023-03-01T00:05:58;97540.34;;;-3.17;80.24
78210;BME280;67485;48.816;9.930;2023-03-01T00:08:24;97536.00;;;-3.20;80.40
78210;BME280;67485;48.816;9.930;2023-03-01T00:11:03;97548.00;;;-3.19;80.69
78210;BME280;67485;48.816;9.930;2023-03-01T00:13:30;97549.63;;;-3.21;80.50
78210;BME280;67485;48.816;9.930;2023-03-01T00:15:55;97551.28;;;-3.23;80.45
78210;BME280;67485;48.816;9.930;2023-03-01T00:18:21;97546.25;;;-3.20;80.16
78210;BME280;67485;48.816;9.930;2023-03-01T00:20:52;97554.88;;;-3.18;79.97
78210;BME280;67485;48.816;9.930;2023-03-01T00:23:18;97561.38;;;-3.26;80.13
78210;BME280;67485;48.816;9.930;2023-03-01T00:25:44;97548.72;;;-3.23;80.08
78210;BME280;67485;48.816;9.930;2023-03-01T00:28:09;97538.50;;;-3.21;80.16
78210;BME280;67485;48.816;9.930;2023-03-01T00:30:35;97552.19;;;-3.21;80.25
78210;BME280;67485;48.816;9.930;2023-03-01T00:33:01;97542.97;;;-3.16;80.62
78210;BME280;67485;48.816;9.930;2023-03-01T00:35:26;97542.97;;;-3.16;80.60
78210;BME280;67485;48.816;9.930;2023-03-01T00:37:52;97549.09;;;-3.12;80.87
78210;BME280;67485;48.816;9.930;2023-03-01T00:40:24;97540.94;;;-3.02;80.39
78210;BME280;67485;48.816;9.930;2023-03-01T00:42:49;97538.59;;;-2.96;79.95
78210;BME280;67485;48.816;9.930;2023-03-01T00:45:16;97534.25;;;-2.98;80.06
78210;BME280;67485;48.816;9.930;2023-03-01T00:47:42;97546.50;;;-2.91;80.20
78210;BME280;67485;48.816;9.930;2023-03-01T00:50:08;97536.41;;;-2.86;80.55
78210;BME280;67485;48.816;9.930;2023-03-01T00:52:34;97536.50;;;-2.83;80.46
78210;BME280;67485;48.816;9.930;2023-03-01T00:55:00;97534.13;;;-2.79;80.76
78210;BME280;67485;48.816;9.930;2023-03-01T00:57:25;97541.78;;;-2.80;80.97
78210;BME280;67485;48.816;9.930;2023-03-01T00:59:51;97536.34;;;-2.88;81.60
78210;BME280;67485;48.816;9.930;2023-03-01T01:02:18;97536.28;;;-2.89;81.58
78210;BME280;67485;48.816;9.930;2023-03-01T01:04:44;97540.53;;;-2.90;81.90
78210;BME280;67485;48.816;9.930;2023-03-01T01:07:10;97540.66;;;-2.87;81.91
78210;BME280;67485;48.816;9.930;2023-03-01T01:09:35;97539.88;;;-2.84;82.11
78210;BME280;67485;48.816;9.930;2023-03-01T01:12:02;97535.06;;;-2.77;81.66
78210;BME280;67485;48.816;9.930;2023-03-01T01:14:28;97531.84;;;-2.71;81.80
78210;BME280;67485;48.816;9.930;2023-03-01T01:16:54;97530.31;;;-2.66;81.46
78210;BME280;67485;48.816;9.930;2023-03-01T01:19:20;97522.19;;;-2.54;81.15
78210;BME280;67485;48.816;9.930;2023-03-01T01:21:47;97526.53;;;-2.53;81.20
78210;BME280;67485;48.816;9.930;2023-03-01T01:24:14;97528.38;;;-2.49;81.66
78210;BME280;67485;48.816;9.930;2023-03-01T01:26:40;97520.88;;;-2.42;81.22
78210;BME280;67485;48.816;9.930;2023-03-01T01:29:06;97524.44;;;-2.39;81.39
78210;BME280;67485;48.816;9.930;2023-03-01T01:31:33;97515.16;;;-2.35;81.01
78210;BME280;67485;48.816;9.930;2023-03-01T01:34:01;97518.41;;;-2.39;80.71
78210;BME280;67485;48.816;9.930;2023-03-01T01:36:27;97511.88;;;-2.31;81.34
78210;BME280;67485;48.816;9.930;2023-03-01T01:38:53;97510.97;;;-2.32;80.18
78210;BME280;67485;48.816;9.930;2023-03-01T01:41:20;97500.63;;;-2.35;80.07
78210;BME280;67485;48.816;9.930;2023-03-01T01:46:32;97497.88;;;-2.39;80.75
78210;BME280;67485;48.816;9.930;2023-03-01T01:49:00;97502.09;;;-2.41;80.92
78210;BME280;67485;48.816;9.930;2023-03-01T01:51:30;97497.78;;;-2.42;80.98
78210;BME280;67485;48.816;9.930;2023-03-01T01:54:09;97497.88;;;-2.39;80.88
78210;BME280;67485;48.816;9.930;2023-03-01T01:56:37;97494.63;;;-2.35;81.23
78210;BME280;67485;48.816;9.930;2023-03-01T01:59:04;97493.00;;;-2.32;81.06
78210;BME280;67485;48.816;9.930;2023-03-01T02:01:30;97493.16;;;-2.27;80.98
78210;BME280;67485;48.816;9.930;2023-03-01T02:03:56;97488.16;;;-2.24;80.87
78210;BME280;67485;48.816;9.930;2023-03-01T02:06:29;97481.53;;;-2.17;80.70
78210;BME280;67485;48.816;9.930;2023-03-01T02:09:02;97481.56;;;-2.16;80.22
78210;BME280;67485;48.816;9.930;2023-03-01T02:11:31;97480.03;;;-2.10;79.93
78210;BME280;67485;48.816;9.930;2023-03-01T02:13:56;97480.03;;;-2.10;80.11
78210;BME280;67485;48.816;9.930;2023-03-01T02:16:22;97476.84;;;-2.03;80.11
78210;BME280;67485;48.816;9.930;2023-03-01T02:18:49;97466.50;;;-2.06;79.97
78210;BME280;67485;48.816;9.930;2023-03-01T02:24:06;97471.63;;;-2.06;79.63
78210;BME280;67485;48.816;9.930;2023-03-01T02:26:43;97463.19;;;-2.02;79.95
78210;BME280;67485;48.816;9.930;2023-03-01T02:29:10;97463.28;;;-1.99;79.71
78210;BME280;67485;48.816;9.930;2023-03-01T02:31:36;97462.47;;;-1.98;79.66
78210;BME280;67485;48.816;9.930;2023-03-01T02:34:17;97454.66;;;-2.01;79.95
78210;BME280;67485;48.816;9.930;2023-03-01T02:36:56;97453.00;;;-1.99;79.99
78210;BME280;67485;48.816;9.930;2023-03-01T02:39:46;97453.19;;;-1.93;79.69
78210;BME280;67485;48.816;9.930;2023-03-01T02:42:17;97449.63;;;-1.98;79.73
78210;BME280;67485;48.816;9.930;2023-03-01T02:44:44;97451.56;;;-1.91;79.45
78210;BME280;67485;48.816;9.930;2023-03-01T02:47:10;97452.22;;;-1.97;79.69
78210;BME280;67485;48.816;9.930;2023-03-01T02:49:36;97450.75;;;-1.90;79.41
78210;BME280;67485;48.816;9.930;2023-03-01T02:52:27;97446.34;;;-1.94;79.68
78210;BME280;67485;48.816;9.930;2023-03-01T02:55:01;97440.28;;;-1.96;79.87
78210;BME280;67485;48.816;9.930;2023-03-01T02:57:30;97438.53;;;-1.97;79.65
78210;BME280;67485;48.816;9.930;2023-03-01T02:59:59;97428.38;;;-1.94;79.49
78210;BME280;67485;48.816;9.930;2023-03-01T03:02:29;97436.16;;;-1.91;79.14
78210;BME280;67485;48.816;9.930;2023-03-01T03:05:19;97423.09;;;-1.97;79.73
78210;BME280;67485;48.816;9.930;2023-03-01T03:07:47;97418.69;;;-2.01;79.53
78210;BME280;67485;48.816;9.930;2023-03-01T03:10:29;97415.97;;;-2.06;79.76
78210;BME280;67485;48.816;9.930;2023-03-01T03:13:04;97411.69;;;-2.05;79.82
78210;BME280;67485;48.816;9.930;2023-03-01T03:15:31;97403.09;;;-2.07;79.92
78210;BME280;67485;48.816;9.930;2023-03-01T03:17:58;97404.84;;;-2.06;79.87
78210;BME280;67485;48.816;9.930;2023-03-01T03:20:26;97401.34;;;-2.08;79.80
78210;BME280;67485;48.816;9.930;2023-03-01T03:22:54;97399.59;;;-2.09;80.20
78210;BME280;67485;48.816;9.930;2023-03-01T03:25:21;97391.88;;;-2.09;79.97
78210;BME280;67485;48.816;9.930;2023-03-01T03:27:50;97395.28;;;-2.10;80.00
78210;BME280;67485;48.816;9.930;2023-03-01T03:30:27;97399.59;;;-2.09;79.91
78210;BME280;67485;48.816;9.930;2023-03-01T03:32:53;97397.84;;;-2.10;80.34
78210;BME280;67485;48.816;9.930;2023-03-01T03:35:21;97401.25;;;-2.12;80.35
78210;BME280;67485;48.816;9.930;2023-03-01T03:37:47;97405.53;;;-2.10;80.59
78210;BME280;67485;48.816;9.930;2023-03-01T03:40:31;97393.41;;;-2.16;80.66
78210;BME280;67485;48.816;9.930;2023-03-01T03:42:57;97396.63;;;-2.22;80.88
78210;BME280;67485;48.816;9.930;2023-03-01T03:45:22;97395.81;;;-2.21;80.67
78210;BME280;67485;48.816;9.930;2023-03-01T03:47:48;97393.25;;;-2.21;80.72
78210;BME280;67485;48.816;9.930;2023-03-01T03:50:15;97390.66;;;-2.21;80.86
78210;BME280;67485;48.816;9.930;2023-03-01T03:52:41;97393.19;;;-2.22;81.01
78210;BME280;67485;48.816;9.930;2023-03-01T03:55:09;97379.38;;;-2.26;81.37
78210;BME280;67485;48.816;9.930;2023-03-01T03:57:42;97383.75;;;-2.23;80.99
78210;BME280;67485;48.816;9.930;2023-03-01T04:00:11;97383.78;;;-2.22;81.31
78210;BME280;67485;48.816;9.930;2023-03-01T04:02:44;97378.56;;;-2.25;81.00
78210;BME280;67485;48.816;9.930;2023-03-01T04:05:12;97373.44;;;-2.25;81.14
78210;BME280;67485;48.816;9.930;2023-03-01T04:07:40;97371.75;;;-2.23;81.05
78210;BME280;67485;48.816;9.930;2023-03-01T04:10:12;97375.94;;;-2.26;81.26
78210;BME280;67485;48.816;9.930;2023-03-01T04:12:38;97374.25;;;-2.26;81.58
78210;BME280;67485;48.816;9.930;2023-03-01T04:15:05;97369.16;;;-2.24;81.23
78210;BME280;67485;48.816;9.930;2023-03-01T04:17:39;97372.53;;;-2.25;81.60
78210;BME280;67485;48.816;9.930;2023-03-01T04:20:06;97370.88;;;-2.25;81.55
78210;BME280;67485;48.816;9.930;2023-03-01T04:22:32;97373.44;;;-2.25;81.55
78210;BME280;67485;48.816;9.930;2023-03-01T04:24:58;97377.78;;;-2.22;81.92
78210;BME280;67485;48.816;9.930;2023-03-01T04:27:35;97374.31;;;-2.23;81.97
78210;BME280;67485;48.816;9.930;2023-03-01T04:30:02;97372.63;;;-2.24;81.63
78210;BME280;67485;48.816;9.930;2023-03-01T04:32:28;97368.28;;;-2.25;81.33
78210;BME280;67485;48.816;9.930;2023-03-01T04:34:54;97363.16;;;-2.25;81.42
78210;BME280;67485;48.816;9.930;2023-03-01T04:37:20;97368.38;;;-2.22;81.69
78210;BME280;67485;48.816;9.930;2023-03-01T04:39:45;97378.66;;;-2.22;81.50
78210;BME280;67485;48.816;9.930;2023-03-01T04:42:13;97372.66;;;-2.22;81.33
78210;BME280;67485;48.816;9.930;2023-03-01T04:44:38;97373.50;;;-2.22;81.49
78210;BME280;67485;48.816;9.930;2023-03-01T04:47:04;97360.69;;;-2.22;81.44
78210;BME280;67485;48.816;9.930;2023-03-01T04:49:30;97365.88;;;-2.20;81.49
78210;BME280;67485;48.816;9.930;2023-03-01T04:51:57;97371.75;;;-2.23;81.47
78210;BME280;67485;48.816;9.930;2023-03-01T04:54:31;97369.16;;;-2.24;81.55
78210;BME280;67485;48.816;9.930;2023-03-01T04:56:58;97375.22;;;-2.22;81.83
78210;BME280;67485;48.816;9.930;2023-03-01T04:59:24;97378.75;;;-2.19;81.59
78210;BME280;67485;48.816;9.930;2023-03-01T05:01:51;97370.16;;;-2.19;81.61
78210;BME280;67485;48.816;9.930;2023-03-01T05:04:17;97367.56;;;-2.21;81.71
78210;BME280;67485;48.816;9.930;2023-03-01T05:06:43;97371.88;;;-2.20;81.89
78210;BME280;67485;48.816;9.930;2023-03-01T05:09:09;97368.38;;;-2.22;82.33
78210;BME280;67485;48.816;9.930;2023-03-01T05:11:34;97363.34;;;-2.19;82.14
78210;BME280;67485;48.816;9.930;2023-03-01T05:14:05;97365.97;;;-2.17;81.89
78210;BME280;67485;48.816;9.930;2023-03-01T05:16:32;97361.69;;;-2.17;81.61
78210;BME280;67485;48.816;9.930;2023-03-01T05:18:59;97356.47;;;-2.20;81.64
78210;BME280;67485;48.816;9.930;2023-03-01T05:21:25;97357.31;;;-2.19;82.18
78210;BME280;67485;48.816;9.930;2023-03-01T05:23:51;97360.75;;;-2.20;82.21
78210;BME280;67485;48.816;9.930;2023-03-01T05:26:19;97367.69;;;-2.18;82.34
78210;BME280;67485;48.816;9.930;2023-03-01T05:28:47;97355.69;;;-2.17;82.38
78210;BME280;67485;48.816;9.930;2023-03-01T05:31:13;97358.31;;;-2.16;81.91
78210;BME280;67485;48.816;9.930;2023-03-01T05:33:40;97353.16;;;-2.16;82.06
78210;BME280;67485;48.816;9.930;2023-03-01T05:36:07;97352.31;;;-2.16;81.90
78210;BME280;67485;48.816;9.930;2023-03-01T05:38:33;97354.91;;;-2.15;81.52
78210;BME280;67485;48.816;9.930;2023-03-01T05:40:59;97359.97;;;-2.18;81.82
78210;BME280;67485;48.816;9.930;2023-03-01T05:43:25;97357.31;;;-2.19;81.48
78210;BME280;67485;48.816;9.930;2023-03-01T05:45:50;97353.84;;;-2.21;82.22
78210;BME280;67485;48.816;9.930;2023-03-01T05:48:16;97359.78;;;-2.24;81.71
78210;BME280;67485;48.816;9.930;2023-03-01T05:50:45;97357.91;;;-2.28;82.06
78210;BME280;67485;48.816;9.930;2023-03-01T05:53:17;97359.50;;;-2.32;82.42
78210;BME280;67485;48.816;9.930;2023-03-01T05:55:44;97358.56;;;-2.35;82.17
78210;BME280;67485;48.816;9.930;2023-03-01T05:58:14;97354.28;;;-2.35;82.10
78210;BME280;67485;48.816;9.930;2023-03-01T06:00:41;97355.88;;;-2.38;81.96
78210;BME280;67485;48.816;9.930;2023-03-01T06:03:10;97356.69;;;-2.39;82.61
78210;BME280;67485;48.816;9.930;2023-03-01T06:05:35;97367.78;;;-2.40;82.29
78210;BME280;67485;48.816;9.930;2023-03-01T06:08:01;97369.44;;;-2.42;82.34
78210;BME280;67485;48.816;9.930;2023-03-01T06:10:27;97369.31;;;-2.46;82.16
78210;BME280;67485;48.816;9.930;2023-03-01T06:12:53;97372.72;;;-2.47;82.03
78210;BME280;67485;48.816;9.930;2023-03-01T06:15:19;97369.09;;;-2.52;81.86
78210;BME280;67485;48.816;9.930;2023-03-01T06:17:46;97363.88;;;-2.55;82.36
78210;BME280;67485;48.816;9.930;2023-03-01T06:20:20;97366.28;;;-2.59;82.34
78210;BME280;67485;48.816;9.930;2023-03-01T06:22:46;97361.69;;;-2.70;82.42
78210;BME280;67485;48.816;9.930;2023-03-01T06:25:15;97363.31;;;-2.72;82.78
78210;BME280;67485;48.816;9.930;2023-03-01T06:27:41;97362.53;;;-2.69;82.55
78210;BME280;67485;48.816;9.930;2023-03-01T06:30:08;97365.00;;;-2.72;82.78
78210;BME280;67485;48.816;9.930;2023-03-01T06:32:36;97366.56;;;-2.78;82.30
78210;BME280;67485;48.816;9.930;2023-03-01T06:35:03;97365.75;;;-2.77;82.18
78210;BME280;67485;48.816;9.930;2023-03-01T06:37:29;97370.19;;;-2.71;81.71
78210;BME280;67485;48.816;9.930;2023-03-01T06:39:55;97372.19;;;-2.62;81.39
78210;BME280;67485;48.816;9.930;2023-03-01T06:42:20;97361.94;;;-2.62;81.54
78210;BME280;67485;48.816;9.930;2023-03-01T06:44:46;97362.66;;;-2.66;81.48
78210;BME280;67485;48.816;9.930;2023-03-01T06:47:12;97354.84;;;-2.69;80.86
78210;BME280;67485;48.816;9.930;2023-03-01T06:49:37;97363.47;;;-2.67;80.83
78210;BME280;67485;48.816;9.930;2023-03-01T06:52:03;97363.59;;;-2.64;80.84
78210;BME280;67485;48.816;9.930;2023-03-01T06:54:29;97362.31;;;-2.75;81.40
78210;BME280;67485;48.816;9.930;2023-03-01T06:56:55;97357.16;;;-2.77;81.47
78210;BME280;67485;48.816;9.930;2023-03-01T06:59:20;97358.81;;;-2.79;81.11
78210;BME280;67485;48.816;9.930;2023-03-01T07:01:46;97368.41;;;-2.73;81.38
78210;BME280;67485;48.816;9.930;2023-03-01T07:04:13;97359.84;;;-2.74;81.42
78210;BME280;67485;48.816;9.930;2023-03-01T07:06:39;97361.84;;;-2.65;81.31
78210;BME280;67485;48.816;9.930;2023-03-01T07:09:05;97366.41;;;-2.56;80.66
78210;BME280;67485;48.816;9.930;2023-03-01T07:11:30;97367.78;;;-2.66;80.63
78210;BME280;67485;48.816;9.930;2023-03-01T07:13:56;97364.25;;;-2.70;81.05
78210;BME280;67485;48.816;9.930;2023-03-01T07:16:22;97358.28;;;-2.69;80.43
78210;BME280;67485;48.816;9.930;2023-03-01T07:18:47;97356.03;;;-2.59;80.94
78210;BME280;67485;48.816;9.930;2023-03-01T07:21:14;97358.84;;;-2.52;80.47
78210;BME280;67485;48.816;9.930;2023-03-01T07:23:40;97363.97;;;-2.52;79.89
78210;BME280;67485;48.816;9.930;2023-03-01T07:26:07;97350.44;;;-2.48;79.91
78210;BME280;67485;48.816;9.930;2023-03-01T07:28:32;97342.00;;;-2.43;79.73
78210;BME280;67485;48.816;9.930;2023-03-01T07:31:05;97343.03;;;-2.38;79.43
78210;BME280;67485;48.816;9.930;2023-03-01T07:33:31;97334.59;;;-2.34;79.54
78210;BME280;67485;48.816;9.930;2023-03-01T07:35:58;97333.91;;;-2.30;78.79
78210;BME280;67485;48.816;9.930;2023-03-01T07:38:24;97337.38;;;-2.28;79.20
78210;BME280;67485;48.816;9.930;2023-03-01T07:40:50;97332.44;;;-2.22;78.80
78210;BME280;67485;48.816;9.930;2023-03-01T07:43:16;97337.91;;;-2.11;78.90
78210;BME280;67485;48.816;9.930;2023-03-01T07:45:41;97332.06;;;-2.05;78.71
78210;BME280;67485;48.816;9.930;2023-03-01T07:48:07;97332.22;;;-2.01;77.83
78210;BME280;67485;48.816;9.930;2023-03-01T07:50:33;97325.41;;;-2.00;78.05
78210;BME280;67485;48.816;9.930;2023-03-01T07:52:58;97324.94;;;-1.87;77.85
78210;BME280;67485;48.816;9.930;2023-03-01T07:55:24;97316.72;;;-1.76;77.88
78210;BME280;67485;48.816;9.930;2023-03-01T07:57:50;97315.94;;;-1.74;77.29
78210;BME280;67485;48.816;9.930;2023-03-01T08:00:16;97316.44;;;-1.55;76.78
78210;BME280;67485;48.816;9.930;2023-03-01T08:02:41;97318.31;;;-1.50;76.73
78210;BME280;67485;48.816;9.930;2023-03-01T08:05:08;97320.28;;;-1.41;76.23
78210;BME280;67485;48.816;9.930;2023-03-01T08:07:34;97309.34;;;-1.34;75.72
78210;BME280;67485;48.816;9.930;2023-03-01T08:10:00;97310.69;;;-1.16;75.60
78210;BME280;67485;48.816;9.930;2023-03-01T08:12:26;97313.06;;;-1.24;75.21
78210;BME280;67485;48.816;9.930;2023-03-01T08:14:53;97308.09;;;-1.18;75.03
78210;BME280;67485;48.816;9.930;2023-03-01T08:17:19;97307.91;;;-1.24;74.82
78210;BME280;67485;48.816;9.930;2023-03-01T08:19:45;97312.53;;;-1.10;74.63
78210;BME280;67485;48.816;9.930;2023-03-01T08:22:11;97304.00;;;-0.77;73.99
78210;BME280;67485;48.816;9.930;2023-03-01T08:24:36;97305.00;;;-0.71;73.27
78210;BME280;67485;48.816;9.930;2023-03-01T08:27:02;97294.22;;;-0.56;72.93
78210;BME280;67485;48.816;9.930;2023-03-01T08:29:30;97295.25;;;-0.49;72.70
78210;BME280;67485;48.816;9.930;2023-03-01T08:31:56;97295.72;;;-0.29;72.26
78210;BME280;67485;48.816;9.930;2023-03-01T08:34:22;97296.97;;;-0.11;71.18
78210;BME280;67485;48.816;9.930;2023-03-01T08:36:48;97294.59;;;-0.04;71.10
78210;BME280;67485;48.816;9.930;2023-03-01T08:39:15;97293.41;;;0.20;70.21
78210;BME280;67485;48.816;9.930;2023-03-01T08:41:42;97296.41;;;0.40;69.59
78210;BME280;67485;48.816;9.930;2023-03-01T08:44:09;97292.47;;;0.58;68.85
78210;BME280;67485;48.816;9.930;2023-03-01T08:46:37;97286.31;;;0.95;67.99
78210;BME280;67485;48.816;9.930;2023-03-01T08:49:23;97297.75;;;1.10;66.29
78210;BME280;67485;48.816;9.930;2023-03-01T08:51:49;97283.59;;;1.37;65.68
78210;BME280;67485;48.816;9.930;2023-03-01T08:54:18;97277.97;;;1.61;64.71
78210;BME280;67485;48.816;9.930;2023-03-01T08:56:45;97280.81;;;1.78;63.56
78210;BME280;67485;48.816;9.930;2023-03-01T08:59:12;97270.13;;;2.13;63.15
78210;BME280;67485;48.816;9.930;2023-03-01T09:01:38;97272.16;;;2.37;60.41
78210;BME280;67485;48.816;9.930;2023-03-01T09:04:05;97269.22;;;2.79;60.62
78210;BME280;67485;48.816;9.930;2023-03-01T09:06:32;97271.59;;;2.62;59.01
78210;BME280;67485;48.816;9.930;2023-03-01T09:08:59;97263.75;;;2.54;58.99
78210;BME280;67485;48.816;9.930;2023-03-01T09:11:25;97259.34;;;3.25;57.94
78210;BME280;67485;48.816;9.930;2023-03-01T09:13:50;97244.91;;;3.53;56.90
78210;BME280;67485;48.816;9.930;2023-03-01T09:16:19;97249.38;;;3.75;55.89
78210;BME280;67485;48.816;9.930;2023-03-01T09:18:52;97244.34;;;3.93;54.98
78210;BME280;67485;48.816;9.930;2023-03-01T09:21:19;97237.44;;;4.01;54.85
78210;BME280;67485;48.816;9.930;2023-03-01T09:23:47;97233.97;;;3.93;54.76
78210;BME280;67485;48.816;9.930;2023-03-01T09:26:18;97233.78;;;3.71;54.84
78210;BME280;67485;48.816;9.930;2023-03-01T09:28:45;97243.41;;;3.85;54.46
78210;BME280;67485;48.816;9.930;2023-03-01T09:31:14;97235.88;;;4.31;53.71
78210;BME280;67485;48.816;9.930;2023-03-01T09:33:41;97233.28;;;4.33;53.30
78210;BME280;67485;48.816;9.930;2023-03-01T09:36:11;97229.06;;;4.55;52.99
78210;BME280;67485;48.816;9.930;2023-03-01T09:38:37;97217.97;;;5.13;52.06
78210;BME280;67485;48.816;9.930;2023-03-01T09:41:31;97218.81;;;4.92;51.50
78210;BME280;67485;48.816;9.930;2023-03-01T09:46:45;97215.34;;;5.83;49.49
78210;BME280;67485;48.816;9.930;2023-03-01T09:49:19;97217.91;;;6.20;49.47
78210;BME280;67485;48.816;9.930;2023-03-01T09:54:26;97217.97;;;6.00;48.37
78210;BME280;67485;48.816;9.930;2023-03-01T10:00:03;97209.25;;;6.15;47.87
78210;BME280;67485;48.816;9.930;2023-03-01T10:05:14;97195.53;;;7.45;45.36
78210;BME280;67485;48.816;9.930;2023-03-01T10:10:38;97196.91;;;7.83;44.40
78210;BME280;67485;48.816;9.930;2023-03-01T10:16:09;97182.16;;;8.62;42.63
78210;BME280;67485;48.816;9.930;2023-03-01T10:18:37;97179.94;;;8.24;43.32
78210;BME280;67485;48.816;9.930;2023-03-01T10:21:15;97174.28;;;8.63;42.19
78210;BME280;67485;48.816;9.930;2023-03-01T10:23:42;97175.56;;;8.97;42.73
78210;BME280;67485;48.816;9.930;2023-03-01T10:31:27;97183.09;;;8.54;42.37
78210;BME280;67485;48.816;9.930;2023-03-01T10:34:07;97170.44;;;9.45;41.08
78210;BME280;67485;48.816;9.930;2023-03-01T10:36:33;97156.47;;;9.98;40.05
78210;BME280;67485;48.816;9.930;2023-03-01T10:39:03;97163.13;;;10.14;39.67
78210;BME280;67485;48.816;9.930;2023-03-01T10:41:51;97156.16;;;9.13;41.27
78210;BME280;67485;48.816;9.930;2023-03-01T10:44:37;97156.22;;;8.46;42.31
78210;BME280;67485;48.816;9.930;2023-03-01T10:47:03;97143.44;;;8.21;42.24
78210;BME280;67485;48.816;9.930;2023-03-01T10:49:29;97145.34;;;8.77;42.07
78210;BME280;67485;48.816;9.930;2023-03-01T10:51:55;97142.63;;;9.41;40.80
78210;BME280;67485;48.816;9.930;2023-03-01T10:56:55;97133.53;;;10.11;39.52
78210;BME280;67485;48.816;9.930;2023-03-01T11:05:03;97125.16;;;10.78;39.23
78210;BME280;67485;48.816;9.930;2023-03-01T11:10:20;97116.28;;;10.44;40.15
78210;BME280;67485;48.816;9.930;2023-03-01T11:12:46;97112.78;;;10.00;39.44
78210;BME280;67485;48.816;9.930;2023-03-01T11:15:21;97106.41;;;10.13;39.43
78210;BME280;67485;48.816;9.930;2023-03-01T11:17:48;97098.31;;;11.40;38.03
78210;BME280;67485;48.816;9.930;2023-03-01T11:22:47;97094.25;;;11.96;36.37
78210;BME280;67485;48.816;9.930;2023-03-01T11:25:14;97098.06;;;12.15;35.36
78210;BME280;67485;48.816;9.930;2023-03-01T11:27:43;97094.94;;;11.35;36.54
78210;BME280;67485;48.816;9.930;2023-03-01T11:30:20;97097.84;;;11.59;37.64
78210;BME280;67485;48.816;9.930;2023-03-01T11:35:31;97085.94;;;12.11;36.02
78210;BME280;67485;48.816;9.930;2023-03-01T11:40:37;97066.28;;;11.60;36.62
78210;BME280;67485;48.816;9.930;2023-03-01T11:43:09;97064.78;;;11.51;36.12
78210;BME280;67485;48.816;9.930;2023-03-01T11:46:02;97058.91;;;11.07;36.88
78210;BME280;67485;48.816;9.930;2023-03-01T11:48:48;97058.25;;;10.61;38.44
78210;BME280;67485;48.816;9.930;2023-03-01T11:51:38;97056.50;;;10.62;38.53
78210;BME280;67485;48.816;9.930;2023-03-01T11:56:54;97042.59;;;12.83;35.34
78210;BME280;67485;48.816;9.930;2023-03-01T12:05:23;97035.97;;;11.15;37.67
78210;BME280;67485;48.816;9.930;2023-03-01T12:08:17;97028.25;;;12.08;36.82
78210;BME280;67485;48.816;9.930;2023-03-01T12:11:16;97022.38;;;12.85;36.14
78210;BME280;67485;48.816;9.930;2023-03-01T12:16:40;97003.81;;;13.17;33.93
78210;BME280;67485;48.816;9.930;2023-03-01T12:22:52;97001.13;;;11.10;38.42
78210;BME280;67485;48.816;9.930;2023-03-01T12:38:42;96985.81;;;7.63;45.54
78210;BME280;67485;48.816;9.930;2023-03-01T12:47:11;96989.16;;;6.96;48.15
78210;BME280;67485;48.816;9.930;2023-03-01T12:50:05;96980.38;;;7.07;46.82
78210;BME280;67485;48.816;9.930;2023-03-01T12:53:00;96974.53;;;6.78;48.75
78210;BME280;67485;48.816;9.930;2023-03-01T12:55:36;96973.91;;;6.53;48.74
78210;BME280;67485;48.816;9.930;2023-03-01T12:58:32;96972.06;;;6.64;50.06
78210;BME280;67485;48.816;9.930;2023-03-01T13:10:24;96965.31;;;6.42;50.39
78210;BME280;67485;48.816;9.930;2023-03-01T13:15:39;96969.81;;;6.23;50.14
78210;BME280;67485;48.816;9.930;2023-03-01T13:26:09;96956.78;;;6.24;51.47
78210;BME280;67485;48.816;9.930;2023-03-01T13:28:40;96960.25;;;6.23;50.82
78210;BME280;67485;48.816;9.930;2023-03-01T13:33:56;96951.63;;;6.15;50.43
78210;BME280;67485;48.816;9.930;2023-03-01T13:38:56;96964.63;;;6.13;52.36
78210;BME280;67485;48.816;9.930;2023-03-01T13:46:52;96958.69;;;5.88;51.15
78210;BME280;67485;48.816;9.930;2023-03-01T13:49:21;96949.13;;;6.01;51.45
78210;BME280;67485;48.816;9.930;2023-03-01T13:51:49;96944.81;;;5.92;52.23
78210;BME280;67485;48.816;9.930;2023-03-01T13:54:16;96943.91;;;5.99;51.93
78210;BME280;67485;48.816;9.930;2023-03-01T13:56:44;96938.63;;;6.16;51.53
78210;BME280;67485;48.816;9.930;2023-03-01T13:59:19;96945.59;;;6.10;51.22
78210;BME280;67485;48.816;9.930;2023-03-01T14:01:54;96945.59;;;6.11;50.96
78210;BME280;67485;48.816;9.930;2023-03-01T14:07:11;96946.41;;;6.18;51.09
78210;BME280;67485;48.816;9.930;2023-03-01T14:09:43;96952.50;;;6.15;51.54
78210;BME280;67485;48.816;9.930;2023-03-01T14:12:25;96959.25;;;6.38;50.57
78210;BME280;67485;48.816;9.930;2023-03-01T14:17:34;96956.66;;;6.40;50.31
78210;BME280;67485;48.816;9.930;2023-03-01T14:20:30;96955.91;;;6.25;50.31
78210;BME280;67485;48.816;9.930;2023-03-01T14:22:57;96954.22;;;6.13;50.66
78210;BME280;67485;48.816;9.930;2023-03-01T14:25:32;96958.47;;;6.31;50.52
78210;BME280;67485;48.816;9.930;2023-03-01T14:28:03;96963.66;;;6.31;50.10
78210;BME280;67485;48.816;9.930;2023-03-01T14:30:34;96968.09;;;6.17;50.14
78210;BME280;67485;48.816;9.930;2023-03-01T14:33:04;96967.19;;;6.20;50.11
78210;BME280;67485;48.816;9.930;2023-03-01T14:35:34;96974.06;;;6.31;50.24
78210;BME280;67485;48.816;9.930;2023-03-01T14:38:00;96977.47;;;6.43;49.98
78210;BME280;67485;48.816;9.930;2023-03-01T14:40:32;96971.50;;;6.27;49.63
78210;BME280;67485;48.816;9.930;2023-03-01T14:43:00;96968.81;;;6.42;50.08
78210;BME280;67485;48.816;9.930;2023-03-01T14:45:29;96960.22;;;6.26;49.16
78210;BME280;67485;48.816;9.930;2023-03-01T14:47:59;96970.47;;;6.48;49.67
78210;BME280;67485;48.816;9.930;2023-03-01T14:50:31;96969.25;;;6.89;49.68
78210;BME280;67485;48.816;9.930;2023-03-01T14:53:03;96957.78;;;7.06;48.58
78210;BME280;67485;48.816;9.930;2023-03-01T14:55:35;96957.53;;;7.30;49.13
78210;BME280;67485;48.816;9.930;2023-03-01T14:58:08;96956.84;;;7.13;48.67
78210;BME280;67485;48.816;9.930;2023-03-01T15:00:35;96957.56;;;7.27;48.83
78210;BME280;67485;48.816;9.930;2023-03-01T15:03:11;96959.44;;;7.13;48.24
78210;BME280;67485;48.816;9.930;2023-03-01T15:05:40;96952.75;;;6.89;49.11
78210;BME280;67485;48.816;9.930;2023-03-01T15:08:07;96958.81;;;6.89;49.20
78210;BME280;67485;48.816;9.930;2023-03-01T15:10:56;96961.41;;;6.92;48.99